TAF Text Data
IDs:
Format:
Raw Decoded Include METAR

Data at: 0234 UTC 03 Jul 2022

Region: TOP
KATL 030159Z 0302/0406 31008KT P6SM VCSH SCT040 SCT200
  FM030300 27003KT P6SM SCT200
  FM031500 30005KT P6SM FEW025 SCT040
  FM031700 29006KT P6SM SCT040
  PROB30 0317/0323 3SM TSRA BR BKN035CB
  FM040000 29005KT P6SM FEW040 BKN080
  FM040500 28003KT P6SM SCT250


KBOS 022320Z 0300/0406 23011KT P6SM VCTS SCT060CB
  FM030100 23008KT P6SM VCSH SCT060
  FM030300 28007KT P6SM FEW050 SCT250


KBWI 022344Z 0300/0406 21008KT 6SM -SHRA VCTS SCT040CB BKN150
  TEMPO 0300/0302 30010G20KT 2SM TSRA
  FM030300 VRB04KT 6SM -SHRA BKN050 BKN120
  FM030500 VRB03KT 5SM BR SCT020 BKN120
  FM030900 34005KT P6SM SCT050 BKN120
  FM031400 35006KT P6SM BKN060
  FM040200 30003KT P6SM SKC


KCLE 022321Z 0300/0406 VRB03KT P6SM FEW100
  FM031100 05005KT P6SM SCT250
  FM040200 12003KT P6SM SCT250


KCLT 022330Z 0300/0406 21006KT P6SM VCSH SCT060 BKN120
  TEMPO 0300/0302 VRB10G20KT 4SM TSRA BR BKN040CB
  FM030300 21003KT P6SM FEW060 BKN250
  FM031700 32004KT P6SM SCT050 BKN120
  PROB30 0318/0324 4SM TSRA BR BKN040CB
  FM040100 04005KT P6SM FEW050 BKN100


KCVG 022322Z 0300/0406 35007KT P6SM BKN200
  FM030400 05003KT P6SM BKN100
  FM030800 04003KT P6SM VCSH BKN070
  FM031000 04003KT P6SM BKN120
  FM031300 07005KT P6SM SCT120
  FM032000 06005KT P6SM SKC


KDCA 030051Z 0301/0406 20007KT P6SM VCTS FEW035CB SCT120 BKN250
  TEMPO 0301/0303 31010G20KT 2SM TSRA
  FM030300 00000KT P6SM SCT020 BKN070
  FM031300 34004KT P6SM SCT050 BKN080
  FM040200 26003KT P6SM SKC


KDEN 030028Z 0300/0406 VRB06KT P6SM SHRA BKN100
  FM030130 19012KT P6SM FEW080 BKN100
  FM031600 33005KT P6SM SCT100 BKN180
  FM032000 03008KT P6SM SCT080 BKN120
  TEMPO 0321/0401 VRB20G30KT TS BKN080CB
  FM040200 19009KT P6SM FEW080 SCT120 SCT200


KDFW 022335Z 0300/0406 15007KT P6SM SCT250
  FM031800 16008KT P6SM VCSH SCT060 SCT250
  FM032300 16009KT P6SM FEW080 SCT250


KDTW 022322Z 0300/0406 32006KT P6SM BKN250
  FM030600 06004KT P6SM SCT080
  FM031000 VRB03KT P6SM BKN080
  FM031800 19007KT P6SM SCT100


KEWR 030227Z 0302/0406 28009KT P6SM FEW050 SCT200 BKN250
  FM030600 VRB04KT P6SM BCFG BKN040 BKN100
  FM031300 35010KT P6SM BKN050 BKN250
  FM031900 30010KT P6SM SCT050 SCT250
  FM040100 33007KT P6SM FEW050


KFLL 022320Z 0300/0406 12010KT P6SM SCT035 SCT050
  FM030200 11007KT P6SM SCT025 SCT050
  FM031500 11010KT P6SM VCSH SCT030 BKN050
  FM040200 11007KT P6SM SCT025 SCT050


KIAD 030104Z 0301/0406 04007KT P6SM VCTS SCT040CB BKN100
  TEMPO 0301/0303 2SM TSRA FEW020 BKN030CB
  FM030300 VRB03KT P6SM BKN080
  FM030500 00000KT 5SM BR SCT010 BKN060
  FM031300 36005KT P6SM SCT050 BKN080
  FM040100 30003KT P6SM SKC


KIAH 022320Z 0300/0406 16010G15KT P6SM FEW050 SCT250
  FM030100 15010KT P6SM FEW050 SCT250
  FM030700 VRB03KT P6SM FEW025 SCT250
  FM031500 19007KT P6SM SCT025 BKN250
  FM032000 16010G15KT P6SM FEW060 SCT250
  FM040100 16007KT P6SM SCT035 SCT250


KJFK 030227Z 0302/0406 20003KT P6SM FEW070 BKN250
  FM030600 28007KT P6SM BKN040 BKN100
  FM031300 33010KT P6SM BKN050 BKN250
  FM031900 18009KT P6SM SCT050 SCT250
  FM040300 33008KT P6SM FEW250


KLAS 022320Z 0300/0406 22016G26KT P6SM SKC
  FM030300 26011G18KT P6SM SKC
  FM031100 23012G20KT P6SM SKC
  FM031600 21016G28KT P6SM SKC
  FM040300 26011G18KT P6SM SKC


KLAX 022331Z 0300/0406 25014KT P6SM SKC
  FM030400 25007KT P6SM SKC
  FM030800 VRB03KT P6SM OVC010
  FM031300 13006KT P6SM BKN015
  FM031700 25008KT P6SM SCT017
  FM032100 25013KT P6SM SKC
  FM040400 25006KT P6SM SCT012


KLGA 030227Z 0302/0406 28004KT P6SM FEW060 BKN250
  FM030600 VRB05KT P6SM BKN040 BKN100
  FM031300 35010KT P6SM BKN050 BKN250
  FM032000 21009KT P6SM SCT050 SCT250
  FM040300 33008KT P6SM FEW250


KMCO 022340Z 0300/0406 VRB03KT P6SM FEW040 FEW120 BKN250
  FM031400 19005KT P6SM SCT025 SCT250
  FM031700 20009KT P6SM VCTS SCT035CB SCT080 BKN250
  FM032300 11007KT P6SM VCSH FEW040 SCT120 BKN250
  FM040200 14002KT P6SM FEW040 FEW120 BKN250


KMDW 022320Z 0300/0406 13008KT P6SM FEW080 BKN250
  FM030300 22004KT P6SM FEW080 SCT150
  FM031500 05006KT P6SM FEW250
  FM031900 07010KT P6SM FEW250
  FM040100 11006KT P6SM SCT250


KMEM 022321Z 0300/0406 23006KT P6SM SCT050 SCT250
  FM030100 19005KT P6SM SCT040 BKN250
  FM031500 20008KT P6SM VCSH SCT030 OVC060
  FM040300 17005KT P6SM BKN250


KMIA 022320Z 0300/0406 12010KT P6SM VCSH SCT025 BKN050
  FM030200 11005KT P6SM FEW025 SCT050
  FM031500 11010KT P6SM VCSH SCT030 SCT050
  FM040200 11007KT P6SM SCT025 SCT050


KMSP 022325Z 0300/0406 VRB04KT P6SM SCT200
  FM031400 17008KT P6SM FEW070 SCT200
  FM040200 16007KT P6SM FEW060 SCT150


KORD 030154Z 0302/0406 17005KT P6SM FEW080 SCT250
  TEMPO 0303/0304 34009KT
  FM030400 VRB05KT P6SM FEW080 SCT110
  FM031900 08010KT P6SM FEW250
  FM040100 12006KT P6SM SCT250


KPDX 030231Z 0303/0324 36008KT P6SM SCT035 BKN040
  FM031000 VRB03KT P6SM -SHRADZ BKN020
  FM031500 00000KT P6SM -SHRADZ OVC016
  FM031800 VRB04KT P6SM OVC021


KPHL 030138Z 0302/0406 25009KT P6SM BKN050
  TEMPO 0302/0304 4SM -TSRA OVC030CB
  FM030400 24005KT P6SM VCSH BKN050
  FM030800 VRB03KT P6SM BKN050
  FM032100 33005KT P6SM FEW250
  FM040300 VRB03KT P6SM SKC


KPHX 022320Z 0300/0406 25009KT P6SM FEW080 FEW150
  FM031000 12007KT P6SM FEW120 FEW250
  FM032100 23010KT P6SM SCT100 BKN120


KPIT 022320Z 0300/0406 34007KT P6SM BKN250
  FM030200 02005KT P6SM SCT250


KSAN 022321Z 0300/0406 28010KT P6SM FEW016
  FM030300 28005KT P6SM FEW015
  FM030500 21006KT P6SM OVC014
  FM031700 24008KT P6SM SCT018
  FM031900 25011KT P6SM SKC
  FM040200 30006KT P6SM BKN015


KSEA 022320Z 0300/0406 22007KT P6SM SCT015 BKN030
  FM030900 21005KT P6SM VCSH OVC015
  FM032000 21006KT P6SM -SHRA OVC025


KSFO 030008Z 0300/0406 26025G36KT P6SM BKN012 OVC014
  FM030500 26014G23KT P6SM OVC012
  FM031600 27013G20KT P6SM BKN014
  FM031800 28014G21KT P6SM SCT016 SCT120
  FM032100 27016G25KT P6SM FEW018 SCT080 BKN100
  FM040300 26013G20KT P6SM SCT015 SCT060 BKN080


KSLC 030142Z 0302/0406 17012G20KT P6SM FEW120 SCT180
  FM030300 15008G18KT P6SM FEW150
  FM031700 19015G25KT P6SM FEW150


KSTL 022320Z 0300/0406 08005KT P6SM -SHRA BKN025 OVC060
  FM030300 10005KT P6SM BKN035
  FM031600 11005KT P6SM BKN050


KTPA 022341Z 0300/0406 VRB03KT P6SM FEW035 BKN250
  FM031300 VRB05KT P6SM SCT030 SCT250
  FM031600 24007KT P6SM VCTS SCT035CB SCT100 BKN250
  FM032000 28007KT P6SM VCTS SCT045CB BKN090
  FM032300 VRB04KT P6SM FEW035 BKN250